KPHX/PHX METAR and TAF weather

Enter ICAO airport designator
Station Type Date Time Source
KPHX METAR 2019/06/18 12:51 UTC NOAA

KPHX 181251Z 08009KT 10SM FEW100 FEW120 27/02 A2983 RMK AO2 SLP080 T02670022


Station Type Date Time Source
KPHX Decoded METAR 2019/06/18 12:51 UTC NOAA

Phoenix, Phoenix Sky Harbor International Airport, AZ, United States (KPHX) 33-26-03N 112-03-04W 336M
Jun 18, 2019 - 08:51 AM EDT / 2019.06.18 1251 UTC
Wind: from the E (080 degrees) at 10 MPH (9 KT):0
Visibility: 10 mile(s):0
Sky conditions: mostly clear
Temperature: 80.1 F (26.7 C)
Dew Point: 36.0 F (2.2 C)
Relative Humidity: 20%
Pressure (altimeter): 29.83 in. Hg (1010 hPa)
ob: KPHX 181251Z 08009KT 10SM FEW100 FEW120 27/02 A2983 RMK AO2 SLP080 T02670022
cycle: 13

Station Type Date Time Source
KPHX TAF 2019/06/18 12:39 UTC NOAA

TAF KPHX 181137Z 1812/1918 11008KT P6SM SKC
FM181700 18010G17KT P6SM SKC
FM182100 22007KT P6SM SKC
FM190000 27010G17KT P6SM SKC
FM190500 26008KT P6SM SKC
FM191000 10005KT P6SM SKC

Example: see airport list